sensor_id;sensor_type;location;lat;lon;timestamp;pressure;altitude;pressure_sealevel;temperature;humidity
71974;BME280;59840;52.122;5.404;2023-09-19T00:00:21;100813.63;;;15.36;100.00
71974;BME280;59840;52.122;5.404;2023-09-19T00:02:55;100815.78;;;15.34;100.00
71974;BME280;59840;52.122;5.404;2023-09-19T00:05:26;100825.63;;;15.34;100.00
71974;BME280;59840;52.122;5.404;2023-09-19T00:07:56;100822.72;;;15.30;100.00
71974;BME280;59840;52.122;5.404;2023-09-19T00:10:26;100820.06;;;15.30;100.00
71974;BME280;59840;52.122;5.404;2023-09-19T00:12:54;100832.03;;;15.28;100.00
71974;BME280;59840;52.122;5.404;2023-09-19T00:15:26;100834.41;;;15.29;100.00
71974;BME280;59840;52.122;5.404;2023-09-19T00:17:55;100843.47;;;15.28;100.00
71974;BME280;59840;52.122;5.404;2023-09-19T00:20:23;100841.59;;;15.29;100.00
71974;BME280;59840;52.122;5.404;2023-09-19T00:22:50;100840.53;;;15.30;100.00
71974;BME280;59840;52.122;5.404;2023-09-19T00:25:20;100839.22;;;15.27;100.00
71974;BME280;59840;52.122;5.404;2023-09-19T00:27:47;100837.34;;;15.28;100.00
71974;BME280;59840;52.122;5.404;2023-09-19T00:30:16;100840.56;;;15.25;100.00
71974;BME280;59840;52.122;5.404;2023-09-19T00:32:47;100839.25;;;15.22;100.00
71974;BME280;59840;52.122;5.404;2023-09-19T00:35:14;100840.06;;;15.23;100.00
71974;BME280;59840;52.122;5.404;2023-09-19T00:37:42;100844.81;;;15.26;100.00
71974;BME280;59840;52.122;5.404;2023-09-19T00:40:10;100842.44;;;15.24;100.00
71974;BME280;59840;52.122;5.404;2023-09-19T00:42:39;100849.31;;;15.25;100.00
71974;BME280;59840;52.122;5.404;2023-09-19T00:45:07;100848.78;;;15.28;100.00
71974;BME280;59840;52.122;5.404;2023-09-19T00:47:35;100851.44;;;15.28;100.00
71974;BME280;59840;52.122;5.404;2023-09-19T00:50:04;100851.44;;;15.28;100.00
71974;BME280;59840;52.122;5.404;2023-09-19T00:52:31;100859.66;;;15.32;100.00
71974;BME280;59840;52.122;5.404;2023-09-19T00:54:58;100850.88;;;15.31;100.00
71974;BME280;59840;52.122;5.404;2023-09-19T00:57:26;100854.34;;;15.32;100.00
71974;BME280;59840;52.122;5.404;2023-09-19T00:59:54;100851.16;;;15.30;100.00
71974;BME280;59840;52.122;5.404;2023-09-19T01:02:21;100859.94;;;15.30;100.00
71974;BME280;59840;52.122;5.404;2023-09-19T01:04:48;100859.66;;;15.32;100.00
71974;BME280;59840;52.122;5.404;2023-09-19T01:07:15;100864.97;;;15.32;100.00
71974;BME280;59840;52.122;5.404;2023-09-19T01:09:42;100866.28;;;15.34;100.00
71974;BME280;59840;52.122;5.404;2023-09-19T01:12:09;100866.03;;;15.36;100.00
71974;BME280;59840;52.122;5.404;2023-09-19T01:14:44;100863.88;;;15.38;100.00
71974;BME280;59840;52.122;5.404;2023-09-19T01:17:32;100864.69;;;15.38;100.00
71974;BME280;59840;52.122;5.404;2023-09-19T01:26:04;100867.63;;;15.32;100.00
71974;BME280;59840;52.122;5.404;2023-09-19T01:28:53;100868.97;;;15.29;100.00
71974;BME280;59840;52.122;5.404;2023-09-19T01:31:29;100875.88;;;15.30;100.00
71974;BME280;59840;52.122;5.404;2023-09-19T01:36:34;100874.81;;;15.31;100.00
71974;BME280;59840;52.122;5.404;2023-09-19T01:39:07;100861.78;;;15.35;100.00
71974;BME280;59840;52.122;5.404;2023-09-19T01:41:55;100872.69;;;15.33;100.00
71974;BME280;59840;52.122;5.404;2023-09-19T01:44:40;100868.69;;;15.31;100.00
71974;BME280;59840;52.122;5.404;2023-09-19T01:47:21;100876.94;;;15.29;100.00
71974;BME280;59840;52.122;5.404;2023-09-19T01:50:02;100877.50;;;15.26;100.00
71974;BME280;59840;52.122;5.404;2023-09-19T01:52:36;100871.38;;;15.26;100.00
71974;BME280;59840;52.122;5.404;2023-09-19T01:55:09;100875.34;;;15.28;100.00
71974;BME280;59840;52.122;5.404;2023-09-19T02:00:56;100881.47;;;15.29;100.00
71974;BME280;59840;52.122;5.404;2023-09-19T02:03:25;100886.00;;;15.28;100.00
71974;BME280;59840;52.122;5.404;2023-09-19T02:05:54;100883.88;;;15.25;100.00
71974;BME280;59840;52.122;5.404;2023-09-19T02:08:22;100888.41;;;15.25;100.00
71974;BME280;59840;52.122;5.404;2023-09-19T02:10:52;100885.53;;;15.21;100.00
71974;BME280;59840;52.122;5.404;2023-09-19T02:13:20;100888.19;;;15.21;100.00
71974;BME280;59840;52.122;5.404;2023-09-19T02:15:47;100875.44;;;15.18;100.00
71974;BME280;59840;52.122;5.404;2023-09-19T02:18:14;100874.63;;;15.23;100.00
71974;BME280;59840;52.122;5.404;2023-09-19T02:20:41;100866.66;;;15.23;100.00
71974;BME280;59840;52.122;5.404;2023-09-19T02:23:09;100874.38;;;15.19;100.00
71974;BME280;59840;52.122;5.404;2023-09-19T02:25:36;100877.28;;;15.18;100.00
71974;BME280;59840;52.122;5.404;2023-09-19T02:28:04;100884.47;;;15.17;100.00
71974;BME280;59840;52.122;5.404;2023-09-19T02:30:32;100888.19;;;15.16;100.00
71974;BME280;59840;52.122;5.404;2023-09-19T02:32:59;100885.03;;;15.14;100.00
71974;BME280;59840;52.122;5.404;2023-09-19T02:35:29;100889.53;;;15.14;100.00
71974;BME280;59840;52.122;5.404;2023-09-19T02:38:02;100891.94;;;15.15;100.00
71974;BME280;59840;52.122;5.404;2023-09-19T02:40:33;100889.00;;;15.12;100.00
71974;BME280;59840;52.122;5.404;2023-09-19T02:43:03;100891.16;;;15.09;100.00
71974;BME280;59840;52.122;5.404;2023-09-19T02:45:29;100893.56;;;15.06;100.00
71974;BME280;59840;52.122;5.404;2023-09-19T02:47:56;100888.78;;;15.03;100.00
71974;BME280;59840;52.122;5.404;2023-09-19T02:50:23;100891.19;;;14.99;100.00
71974;BME280;59840;52.122;5.404;2023-09-19T02:52:50;100885.34;;;14.97;100.00
71974;BME280;59840;52.122;5.404;2023-09-19T02:55:18;100896.78;;;14.93;100.00
71974;BME280;59840;52.122;5.404;2023-09-19T02:57:50;100893.09;;;14.89;100.00
71974;BME280;59840;52.122;5.404;2023-09-19T03:00:18;100900.03;;;14.85;100.00
71974;BME280;59840;52.122;5.404;2023-09-19T03:02:54;100905.88;;;14.82;100.00
71974;BME280;59840;52.122;5.404;2023-09-19T03:05:22;100902.69;;;14.80;100.00
71974;BME280;59840;52.122;5.404;2023-09-19T03:07:50;100896.31;;;14.75;100.00
71974;BME280;59840;52.122;5.404;2023-09-19T03:10:20;100890.47;;;14.73;100.00
71974;BME280;59840;52.122;5.404;2023-09-19T03:12:47;100884.91;;;14.70;100.00
71974;BME280;59840;52.122;5.404;2023-09-19T03:15:15;100886.25;;;14.67;100.00
71974;BME280;59840;52.122;5.404;2023-09-19T03:17:46;100882.53;;;14.63;100.00
71974;BME280;59840;52.122;5.404;2023-09-19T03:20:16;100881.75;;;14.58;100.00
71974;BME280;59840;52.122;5.404;2023-09-19T03:22:44;100895.28;;;14.56;100.00
71974;BME280;59840;52.122;5.404;2023-09-19T03:25:12;100895.84;;;14.53;100.00
71974;BME280;59840;52.122;5.404;2023-09-19T03:27:39;100894.25;;;14.52;100.00
71974;BME280;59840;52.122;5.404;2023-09-19T03:30:07;100893.22;;;14.48;100.00
71974;BME280;59840;52.122;5.404;2023-09-19T03:32:46;100889.50;;;14.44;100.00
71974;BME280;59840;52.122;5.404;2023-09-19T03:35:13;100897.44;;;14.39;100.00
71974;BME280;59840;52.122;5.404;2023-09-19T03:37:41;100891.59;;;14.37;100.00
71974;BME280;59840;52.122;5.404;2023-09-19T03:40:09;100903.00;;;14.37;100.00
71974;BME280;59840;52.122;5.404;2023-09-19T03:42:40;100889.47;;;14.34;100.00
71974;BME280;59840;52.122;5.404;2023-09-19T03:45:08;100876.72;;;14.31;100.00
71974;BME280;59840;52.122;5.404;2023-09-19T03:47:39;100874.88;;;14.26;100.00
71974;BME280;59840;52.122;5.404;2023-09-19T03:50:07;100878.63;;;14.20;100.00
71974;BME280;59840;52.122;5.404;2023-09-19T03:52:34;100881.00;;;14.17;100.00
71974;BME280;59840;52.122;5.404;2023-09-19T03:55:01;100889.78;;;14.12;100.00
71974;BME280;59840;52.122;5.404;2023-09-19T03:57:30;100889.50;;;14.14;100.00
71974;BME280;59840;52.122;5.404;2023-09-19T03:59:56;100890.84;;;14.11;100.00
71974;BME280;59840;52.122;5.404;2023-09-19T04:02:23;100896.94;;;14.06;100.00
71974;BME280;59840;52.122;5.404;2023-09-19T04:04:51;100901.16;;;14.02;100.00
71974;BME280;59840;52.122;5.404;2023-09-19T04:07:18;100900.09;;;13.98;100.00
71974;BME280;59840;52.122;5.404;2023-09-19T04:09:49;100908.31;;;13.92;100.00
71974;BME280;59840;52.122;5.404;2023-09-19T04:12:16;100916.28;;;13.92;100.00
71974;BME280;59840;52.122;5.404;2023-09-19T04:14:45;100918.41;;;13.90;100.00
71974;BME280;59840;52.122;5.404;2023-09-19T04:17:12;100922.09;;;13.89;100.00
71974;BME280;59840;52.122;5.404;2023-09-19T04:19:38;100923.69;;;13.90;100.00
71974;BME280;59840;52.122;5.404;2023-09-19T04:22:07;100916.28;;;13.87;100.00
71974;BME280;59840;52.122;5.404;2023-09-19T04:24:33;100924.22;;;13.87;100.00
71974;BME280;59840;52.122;5.404;2023-09-19T04:27:00;100927.97;;;13.86;100.00
71974;BME280;59840;52.122;5.404;2023-09-19T04:29:28;100944.94;;;13.85;100.00
71974;BME280;59840;52.122;5.404;2023-09-19T04:31:56;100947.59;;;13.85;100.00
71974;BME280;59840;52.122;5.404;2023-09-19T04:34:25;100939.38;;;13.81;100.00
71974;BME280;59840;52.122;5.404;2023-09-19T04:36:52;100947.31;;;13.81;100.00
71974;BME280;59840;52.122;5.404;2023-09-19T04:39:19;100956.31;;;13.75;100.00
71974;BME280;59840;52.122;5.404;2023-09-19T04:41:47;100966.41;;;13.78;100.00
71974;BME280;59840;52.122;5.404;2023-09-19T04:44:14;100969.06;;;13.78;100.00
71974;BME280;59840;52.122;5.404;2023-09-19T04:46:42;100963.75;;;13.78;100.00
71974;BME280;59840;52.122;5.404;2023-09-19T04:49:08;100966.41;;;13.78;100.00
71974;BME280;59840;52.122;5.404;2023-09-19T04:51:35;100961.88;;;13.73;100.00
71974;BME280;59840;52.122;5.404;2023-09-19T04:54:03;100956.84;;;13.77;100.00
71974;BME280;59840;52.122;5.404;2023-09-19T04:56:30;100949.19;;;13.81;100.00
71974;BME280;59840;52.122;5.404;2023-09-19T04:59:00;100949.19;;;13.81;100.00
71974;BME280;59840;52.122;5.404;2023-09-19T05:01:27;100939.34;;;13.76;100.00
71974;BME280;59840;52.122;5.404;2023-09-19T05:03:54;100947.03;;;13.78;100.00
71974;BME280;59840;52.122;5.404;2023-09-19T05:06:20;100952.34;;;13.78;100.00
71974;BME280;59840;52.122;5.404;2023-09-19T05:08:50;100958.44;;;13.78;100.00
71974;BME280;59840;52.122;5.404;2023-09-19T05:11:19;100955.78;;;13.78;100.00
71974;BME280;59840;52.122;5.404;2023-09-19T05:13:51;100962.97;;;13.78;100.00
71974;BME280;59840;52.122;5.404;2023-09-19T05:16:19;100964.81;;;13.77;100.00
71974;BME280;59840;52.122;5.404;2023-09-19T05:18:46;100960.56;;;13.76;100.00
71974;BME280;59840;52.122;5.404;2023-09-19T05:21:12;100962.69;;;13.79;100.00
71974;BME280;59840;52.122;5.404;2023-09-19T05:23:39;100958.97;;;13.75;100.00
71974;BME280;59840;52.122;5.404;2023-09-19T05:26:06;100963.22;;;13.76;100.00
71974;BME280;59840;52.122;5.404;2023-09-19T05:28:33;100970.66;;;13.79;100.00
71974;BME280;59840;52.122;5.404;2023-09-19T05:31:01;100970.13;;;13.82;100.00
71974;BME280;59840;52.122;5.404;2023-09-19T05:33:31;100967.47;;;13.82;100.00
71974;BME280;59840;52.122;5.404;2023-09-19T05:35:58;100963.22;;;13.81;100.00
71974;BME280;59840;52.122;5.404;2023-09-19T05:38:25;100950.50;;;13.83;100.00
71974;BME280;59840;52.122;5.404;2023-09-19T05:40:54;100952.38;;;13.83;100.00
71974;BME280;59840;52.122;5.404;2023-09-19T05:43:21;100946.00;;;13.84;100.00
71974;BME280;59840;52.122;5.404;2023-09-19T05:45:48;100952.59;;;13.86;100.00
71974;BME280;59840;52.122;5.404;2023-09-19T05:48:15;100953.69;;;13.90;100.00
71974;BME280;59840;52.122;5.404;2023-09-19T05:50:43;100959.78;;;13.91;100.00
71974;BME280;59840;52.122;5.404;2023-09-19T05:53:10;100959.53;;;13.92;100.00
71974;BME280;59840;52.122;5.404;2023-09-19T05:55:39;100972.25;;;13.95;100.00
71974;BME280;59840;52.122;5.404;2023-09-19T05:58:06;100964.84;;;14.07;100.00
71974;BME280;59840;52.122;5.404;2023-09-19T06:00:33;100964.34;;;14.11;100.00
71974;BME280;59840;52.122;5.404;2023-09-19T06:03:03;100967.25;;;14.24;100.00
71974;BME280;59840;52.122;5.404;2023-09-19T06:05:29;100970.16;;;14.63;100.00
71974;BME280;59840;52.122;5.404;2023-09-19T06:07:59;100978.94;;;14.74;100.00
71974;BME280;59840;52.122;5.404;2023-09-19T06:10:27;100980.78;;;14.58;100.00
71974;BME280;59840;52.122;5.404;2023-09-19T06:12:54;100990.38;;;14.54;100.00
71974;BME280;59840;52.122;5.404;2023-09-19T06:15:25;100993.31;;;14.48;100.00
71974;BME280;59840;52.122;5.404;2023-09-19T06:17:54;100994.63;;;14.45;100.00
71974;BME280;59840;52.122;5.404;2023-09-19T06:20:26;100993.03;;;14.44;100.00
71974;BME280;59840;52.122;5.404;2023-09-19T06:22:53;100995.94;;;14.43;100.00
71974;BME280;59840;52.122;5.404;2023-09-19T06:25:20;100995.16;;;14.47;100.00
71974;BME280;59840;52.122;5.404;2023-09-19T06:27:53;101004.19;;;14.51;100.00
71974;BME280;59840;52.122;5.404;2023-09-19T06:30:24;100998.88;;;14.51;100.00
71974;BME280;59840;52.122;5.404;2023-09-19T06:32:58;100995.13;;;14.57;100.00
71974;BME280;59840;52.122;5.404;2023-09-19T06:35:27;100993.28;;;14.58;100.00
71974;BME280;59840;52.122;5.404;2023-09-19T06:37:56;100986.91;;;14.64;100.00
71974;BME280;59840;52.122;5.404;2023-09-19T06:40:25;100987.69;;;14.64;100.00
71974;BME280;59840;52.122;5.404;2023-09-19T06:42:52;100982.38;;;14.64;100.00
71974;BME280;59840;52.122;5.404;2023-09-19T06:45:19;100987.16;;;14.67;100.00
71974;BME280;59840;52.122;5.404;2023-09-19T06:47:50;100977.88;;;14.70;100.00
71974;BME280;59840;52.122;5.404;2023-09-19T06:50:18;100989.28;;;14.75;100.00
71974;BME280;59840;52.122;5.404;2023-09-19T06:52:46;100987.16;;;14.78;100.00
71974;BME280;59840;52.122;5.404;2023-09-19T06:55:19;100979.19;;;14.83;100.00
71974;BME280;59840;52.122;5.404;2023-09-19T06:57:47;100986.09;;;14.84;100.00
71974;BME280;59840;52.122;5.404;2023-09-19T07:00:15;100986.34;;;14.87;100.00
71974;BME280;59840;52.122;5.404;2023-09-19T07:02:42;100985.00;;;14.95;100.00
71974;BME280;59840;52.122;5.404;2023-09-19T07:05:09;100984.97;;;15.00;100.00
71974;BME280;59840;52.122;5.404;2023-09-19T07:07:36;100987.09;;;14.98;100.00
71974;BME280;59840;52.122;5.404;2023-09-19T07:10:03;100979.66;;;15.00;100.00
71974;BME280;59840;52.122;5.404;2023-09-19T07:12:36;100987.63;;;15.05;100.00
71974;BME280;59840;52.122;5.404;2023-09-19T07:15:03;100983.38;;;15.09;100.00
71974;BME280;59840;52.122;5.404;2023-09-19T07:17:32;100986.53;;;15.16;100.00
71974;BME280;59840;52.122;5.404;2023-09-19T07:19:59;100992.13;;;15.20;100.00
71974;BME280;59840;52.122;5.404;2023-09-19T07:22:26;100999.81;;;15.21;100.00
71974;BME280;59840;52.122;5.404;2023-09-19T07:24:53;100996.31;;;15.31;100.00
71974;BME280;59840;52.122;5.404;2023-09-19T07:27:20;101005.34;;;15.35;100.00
71974;BME280;59840;52.122;5.404;2023-09-19T07:29:46;101010.38;;;15.41;100.00
71974;BME280;59840;52.122;5.404;2023-09-19T07:32:16;101004.78;;;15.43;100.00
71974;BME280;59840;52.122;5.404;2023-09-19T07:34:43;101006.09;;;15.46;100.00
71974;BME280;59840;52.122;5.404;2023-09-19T07:37:11;101009.31;;;15.42;100.00
71974;BME280;59840;52.122;5.404;2023-09-19T07:39:39;101017.53;;;15.46;100.00
71974;BME280;59840;52.122;5.404;2023-09-19T07:42:07;101013.53;;;15.49;100.00
71974;BME280;59840;52.122;5.404;2023-09-19T07:44:37;101015.66;;;15.52;100.00
71974;BME280;59840;52.122;5.404;2023-09-19T07:47:04;101014.88;;;15.56;100.00
71974;BME280;59840;52.122;5.404;2023-09-19T07:49:31;101018.84;;;15.59;100.00
71974;BME280;59840;52.122;5.404;2023-09-19T07:51:57;101022.53;;;15.63;100.00
71974;BME280;59840;52.122;5.404;2023-09-19T07:54:25;101032.38;;;15.67;100.00
71974;BME280;59840;52.122;5.404;2023-09-19T07:56:53;101028.38;;;15.70;100.00
71974;BME280;59840;52.122;5.404;2023-09-19T07:59:20;101027.28;;;15.71;100.00
71974;BME280;59840;52.122;5.404;2023-09-19T08:01:47;101020.34;;;15.75;100.00
71974;BME280;59840;52.122;5.404;2023-09-19T08:04:14;101021.69;;;15.78;100.00
71974;BME280;59840;52.122;5.404;2023-09-19T08:06:41;101021.13;;;15.81;100.00
71974;BME280;59840;52.122;5.404;2023-09-19T08:09:07;101017.13;;;15.83;100.00
71974;BME280;59840;52.122;5.404;2023-09-19T08:11:37;101022.69;;;15.87;100.00
71974;BME280;59840;52.122;5.404;2023-09-19T08:14:03;101024.28;;;15.93;100.00
71974;BME280;59840;52.122;5.404;2023-09-19T08:16:32;101031.94;;;15.99;100.00
71974;BME280;59840;52.122;5.404;2023-09-19T08:18:59;101017.00;;;16.03;100.00
71974;BME280;59840;52.122;5.404;2023-09-19T08:21:25;101022.31;;;16.03;100.00
71974;BME280;59840;52.122;5.404;2023-09-19T08:23:55;101013.00;;;16.06;100.00
71974;BME280;59840;52.122;5.404;2023-09-19T08:26:21;101013.75;;;16.12;100.00
71974;BME280;59840;52.122;5.404;2023-09-19T08:28:48;101019.06;;;16.17;100.00
71974;BME280;59840;52.122;5.404;2023-09-19T08:31:14;101012.38;;;16.19;100.00
71974;BME280;59840;52.122;5.404;2023-09-19T08:33:43;101010.47;;;16.25;100.00
71974;BME280;59840;52.122;5.404;2023-09-19T08:36:11;101007.75;;;16.30;100.00
71974;BME280;59840;52.122;5.404;2023-09-19T08:38:40;101019.72;;;16.32;100.00
71974;BME280;59840;52.122;5.404;2023-09-19T08:41:07;101010.38;;;16.35;100.00
71974;BME280;59840;52.122;5.404;2023-09-19T08:43:35;101011.97;;;16.36;100.00
71974;BME280;59840;52.122;5.404;2023-09-19T08:48:32;101015.63;;;16.45;100.00
71974;BME280;59840;52.122;5.404;2023-09-19T08:51:06;101020.41;;;16.48;100.00
71974;BME280;59840;52.122;5.404;2023-09-19T08:53:44;101005.97;;;16.54;100.00
71974;BME280;59840;52.122;5.404;2023-09-19T08:56:17;101008.09;;;16.57;99.79
71974;BME280;59840;52.122;5.404;2023-09-19T08:59:03;101005.94;;;16.59;99.34
71974;BME280;59840;52.122;5.404;2023-09-19T09:01:31;101007.00;;;16.58;97.20
71974;BME280;59840;52.122;5.404;2023-09-19T09:04:01;101010.72;;;16.62;97.99
71974;BME280;59840;52.122;5.404;2023-09-19T09:06:30;101007.22;;;16.67;98.20
71974;BME280;59840;52.122;5.404;2023-09-19T09:08:59;101011.16;;;16.74;98.01
71974;BME280;59840;52.122;5.404;2023-09-19T09:11:27;101017.75;;;16.82;98.57
71974;BME280;59840;52.122;5.404;2023-09-19T09:13:54;101011.00;;;16.90;96.49
71974;BME280;59840;52.122;5.404;2023-09-19T09:16:21;101015.00;;;16.92;97.24
71974;BME280;59840;52.122;5.404;2023-09-19T09:18:52;101015.75;;;16.98;96.44
71974;BME280;59840;52.122;5.404;2023-09-19T09:21:21;101003.41;;;17.02;96.99
71974;BME280;59840;52.122;5.404;2023-09-19T09:23:49;101004.38;;;17.11;96.47
71974;BME280;59840;52.122;5.404;2023-09-19T09:26:41;101004.28;;;17.21;95.90
71974;BME280;59840;52.122;5.404;2023-09-19T09:29:09;100998.38;;;17.24;95.56
71974;BME280;59840;52.122;5.404;2023-09-19T09:31:35;100999.13;;;17.30;96.07
71974;BME280;59840;52.122;5.404;2023-09-19T09:34:03;100996.97;;;17.32;94.10
71974;BME280;59840;52.122;5.404;2023-09-19T09:36:37;101002.28;;;17.32;93.96
71974;BME280;59840;52.122;5.404;2023-09-19T09:39:04;100994.44;;;17.40;95.06
71974;BME280;59840;52.122;5.404;2023-09-19T09:41:51;100982.06;;;17.50;94.98
71974;BME280;59840;52.122;5.404;2023-09-19T09:44:18;100989.72;;;17.56;93.13
71974;BME280;59840;52.122;5.404;2023-09-19T09:46:47;100978.75;;;17.58;92.80
71974;BME280;59840;52.122;5.404;2023-09-19T09:49:24;100982.22;;;17.58;92.10
71974;BME280;59840;52.122;5.404;2023-09-19T09:52:14;100979.22;;;17.65;92.58
71974;BME280;59840;52.122;5.404;2023-09-19T09:55:00;100974.09;;;17.68;92.25
71974;BME280;59840;52.122;5.404;2023-09-19T09:57:31;100983.97;;;17.68;91.48
71974;BME280;59840;52.122;5.404;2023-09-19T09:59:59;100978.56;;;17.73;91.79
71974;BME280;59840;52.122;5.404;2023-09-19T10:02:42;100976.09;;;17.77;91.09
71974;BME280;59840;52.122;5.404;2023-09-19T10:05:14;100977.41;;;17.79;90.25
71974;BME280;59840;52.122;5.404;2023-09-19T10:07:47;100989.97;;;17.79;90.57
71974;BME280;59840;52.122;5.404;2023-09-19T10:10:37;100984.28;;;17.85;91.25
71974;BME280;59840;52.122;5.404;2023-09-19T10:13:12;100986.44;;;17.83;89.28
71974;BME280;59840;52.122;5.404;2023-09-19T10:15:42;100991.78;;;17.83;89.55
71974;BME280;59840;52.122;5.404;2023-09-19T10:18:14;100992.84;;;17.82;89.11
71974;BME280;59840;52.122;5.404;2023-09-19T10:20:45;100992.34;;;17.80;87.80
71974;BME280;59840;52.122;5.404;2023-09-19T10:23:12;100985.19;;;17.75;88.49
71974;BME280;59840;52.122;5.404;2023-09-19T10:25:43;100979.56;;;17.77;88.46
71974;BME280;59840;52.122;5.404;2023-09-19T10:28:14;100970.06;;;17.90;88.98
71974;BME280;59840;52.122;5.404;2023-09-19T10:30:43;100975.44;;;18.03;88.72
71974;BME280;59840;52.122;5.404;2023-09-19T10:33:16;100963.19;;;18.02;87.15
71974;BME280;59840;52.122;5.404;2023-09-19T10:35:44;100975.44;;;18.03;88.13
71974;BME280;59840;52.122;5.404;2023-09-19T10:38:13;100955.09;;;18.07;87.68
71974;BME280;59840;52.122;5.404;2023-09-19T10:40:44;100944.25;;;18.18;88.03
71974;BME280;59840;52.122;5.404;2023-09-19T10:43:19;100940.13;;;18.25;87.80
71974;BME280;59840;52.122;5.404;2023-09-19T10:45:49;100938.84;;;18.23;87.10
71974;BME280;59840;52.122;5.404;2023-09-19T10:48:16;100937.75;;;18.24;87.48
71974;BME280;59840;52.122;5.404;2023-09-19T10:51:03;100930.75;;;18.28;86.80
71974;BME280;59840;52.122;5.404;2023-09-19T10:53:43;100938.47;;;18.29;86.74
71974;BME280;59840;52.122;5.404;2023-09-19T10:56:18;100926.78;;;18.25;87.44
71974;BME280;59840;52.122;5.404;2023-09-19T10:58:45;100933.63;;;18.31;85.78
71974;BME280;59840;52.122;5.404;2023-09-19T11:01:12;100921.66;;;18.42;86.57
71974;BME280;59840;52.122;5.404;2023-09-19T11:03:41;100926.81;;;18.53;86.27
71974;BME280;59840;52.122;5.404;2023-09-19T11:06:12;100916.84;;;18.58;86.04
71974;BME280;59840;52.122;5.404;2023-09-19T11:08:56;100911.84;;;18.70;85.62
71974;BME280;59840;52.122;5.404;2023-09-19T11:14:37;100923.91;;;18.68;86.43
71974;BME280;59840;52.122;5.404;2023-09-19T11:30:36;100911.44;;;18.91;84.49
71974;BME280;59840;52.122;5.404;2023-09-19T11:33:21;100920.63;;;18.85;85.29
71974;BME280;59840;52.122;5.404;2023-09-19T11:36:07;100906.88;;;18.78;84.42
71974;BME280;59840;52.122;5.404;2023-09-19T11:49:25;100897.88;;;18.60;83.89
71974;BME280;59840;52.122;5.404;2023-09-19T11:51:52;100889.47;;;18.66;84.13
71974;BME280;59840;52.122;5.404;2023-09-19T11:54:20;100896.47;;;18.76;83.70
71974;BME280;59840;52.122;5.404;2023-09-19T11:56:52;100868.94;;;18.75;82.36
71974;BME280;59840;52.122;5.404;2023-09-19T11:59:21;100884.19;;;18.75;81.21
71974;BME280;59840;52.122;5.404;2023-09-19T12:01:56;100894.09;;;18.74;81.53
71974;BME280;59840;52.122;5.404;2023-09-19T12:09:43;100907.88;;;18.68;81.95
71974;BME280;59840;52.122;5.404;2023-09-19T12:12:26;100914.19;;;18.72;82.34
71974;BME280;59840;52.122;5.404;2023-09-19T12:15:02;100909.03;;;18.75;82.12
71974;BME280;59840;52.122;5.404;2023-09-19T12:17:40;100902.50;;;18.82;82.87
71974;BME280;59840;52.122;5.404;2023-09-19T12:20:09;100904.69;;;18.80;81.24
71974;BME280;59840;52.122;5.404;2023-09-19T12:22:46;100902.81;;;18.80;81.91
71974;BME280;59840;52.122;5.404;2023-09-19T12:25:13;100901.22;;;18.79;81.45
71974;BME280;59840;52.122;5.404;2023-09-19T12:27:49;100902.59;;;18.77;80.99
71974;BME280;59840;52.122;5.404;2023-09-19T12:30:19;100907.56;;;18.69;82.42
71974;BME280;59840;52.122;5.404;2023-09-19T12:32:53;100905.38;;;18.71;82.27
71974;BME280;59840;52.122;5.404;2023-09-19T12:35:27;100897.84;;;18.73;82.63
71974;BME280;59840;52.122;5.404;2023-09-19T12:37:55;100896.47;;;18.76;82.32
71974;BME280;59840;52.122;5.404;2023-09-19T12:40:22;100885.97;;;18.80;81.48
71974;BME280;59840;52.122;5.404;2023-09-19T12:42:57;100902.00;;;18.80;82.58
71974;BME280;59840;52.122;5.404;2023-09-19T12:45:30;100897.06;;;18.73;83.29
71974;BME280;59840;52.122;5.404;2023-09-19T12:48:23;100902.03;;;18.66;84.11
71974;BME280;59840;52.122;5.404;2023-09-19T12:51:09;100910.69;;;18.58;84.91
71974;BME280;59840;52.122;5.404;2023-09-19T12:53:40;100902.47;;;18.54;85.65
71974;BME280;59840;52.122;5.404;2023-09-19T12:56:10;100908.31;;;18.56;84.17
71974;BME280;59840;52.122;5.404;2023-09-19T12:58:55;100899.22;;;18.57;84.55
71974;BME280;59840;52.122;5.404;2023-09-19T13:01:24;100900.44;;;18.65;84.33
71974;BME280;59840;52.122;5.404;2023-09-19T13:04:17;100897.25;;;18.77;84.88
71974;BME280;59840;52.122;5.404;2023-09-19T13:06:52;100915.97;;;18.77;83.87
71974;BME280;59840;52.122;5.404;2023-09-19T13:09:21;100905.28;;;18.77;83.39
71974;BME280;59840;52.122;5.404;2023-09-19T13:11:48;100904.59;;;18.85;83.61
71974;BME280;59840;52.122;5.404;2023-09-19T13:14:25;100897.06;;;18.87;84.88
71974;BME280;59840;52.122;5.404;2023-09-19T13:17:01;100904.59;;;18.85;84.76
71974;BME280;59840;52.122;5.404;2023-09-19T13:19:36;100914.88;;;18.78;83.79
71974;BME280;59840;52.122;5.404;2023-09-19T13:22:04;100922.53;;;18.70;84.06
71974;BME280;59840;52.122;5.404;2023-09-19T13:24:30;100922.63;;;18.65;84.65
71974;BME280;59840;52.122;5.404;2023-09-19T13:26:57;100908.56;;;18.60;86.58
71974;BME280;59840;52.122;5.404;2023-09-19T13:29:23;100917.41;;;18.55;91.68
71974;BME280;59840;52.122;5.404;2023-09-19T13:31:51;100920.59;;;18.57;87.68
71974;BME280;59840;52.122;5.404;2023-09-19T13:34:21;100905.00;;;18.64;85.90
71974;BME280;59840;52.122;5.404;2023-09-19T13:36:48;100912.00;;;18.74;86.09
71974;BME280;59840;52.122;5.404;2023-09-19T13:39:15;100907.84;;;18.82;85.38
71974;BME280;59840;52.122;5.404;2023-09-19T13:41:47;100901.03;;;18.89;85.09
71974;BME280;59840;52.122;5.404;2023-09-19T13:44:14;100896.06;;;18.96;84.82